Dalton, Indiana
Current Conditions -  °F | °C
As of 12:53 AM on Tuesday 21 Oct 2014 (Local Time) from KMIE Reporting Station
Broken Clouds Broken Clouds  
Wind Chill: 50°   Ceiling: 6000
Heat Index: 50°   Visibility: 9mi
Dew Point: 47°   Wind: 6mph
Humidity: 89%   Direction: 290°WNW
Pressure: 29.94"   Gusts: NA
Location:  39.9342°N, 85.1531°W
Report Text: KMIE 210453Z AUTO 29005KT 9SM BKN060 10/08 A2994 RMK AO2 SLP134 T01000083 401830083
Loading
Personal Weather Stations






























Interactive Weather Map
Tropical Storm Tracking
New forecast layout! Learn more

10-Day Weather Forecast

Advertisements
Track Severe Weather on mobile